sensor_id;sensor_type;location;lat;lon;timestamp;P1;durP1;ratioP1;P2;durP2;ratioP2
15183;SDS011;7693;49.266;7.104;2023-08-12T04:21:50;11.45;;;10.25;;
15183;SDS011;7693;49.266;7.104;2023-08-12T04:24:16;12.82;;;10.13;;
15183;SDS011;7693;49.266;7.104;2023-08-12T04:26:44;19.75;;;12.90;;
15183;SDS011;7693;49.266;7.104;2023-08-12T04:29:10;17.27;;;14.18;;
15183;SDS011;7693;49.266;7.104;2023-08-12T04:31:35;12.88;;;11.05;;
15183;SDS011;7693;49.266;7.104;2023-08-12T04:34:01;10.55;;;9.52;;
15183;SDS011;7693;49.266;7.104;2023-08-12T04:36:27;10.23;;;9.23;;
15183;SDS011;7693;49.266;7.104;2023-08-12T04:38:52;9.77;;;9.00;;
15183;SDS011;7693;49.266;7.104;2023-08-12T04:41:18;9.73;;;8.68;;
15183;SDS011;7693;49.266;7.104;2023-08-12T04:43:43;8.18;;;7.68;;
15183;SDS011;7693;49.266;7.104;2023-08-12T04:46:09;8.95;;;8.10;;
15183;SDS011;7693;49.266;7.104;2023-08-12T04:48:38;7.72;;;7.22;;
15183;SDS011;7693;49.266;7.104;2023-08-12T04:51:03;7.97;;;7.38;;
15183;SDS011;7693;49.266;7.104;2023-08-12T04:53:30;7.40;;;6.90;;
15183;SDS011;7693;49.266;7.104;2023-08-12T04:55:55;7.75;;;7.25;;
15183;SDS011;7693;49.266;7.104;2023-08-12T04:58:21;7.65;;;7.25;;
15183;SDS011;7693;49.266;7.104;2023-08-12T05:00:47;9.10;;;8.40;;
15183;SDS011;7693;49.266;7.104;2023-08-12T05:03:13;8.07;;;7.60;;
15183;SDS011;7693;49.266;7.104;2023-08-12T05:05:38;8.35;;;7.85;;
15183;SDS011;7693;49.266;7.104;2023-08-12T05:08:04;8.60;;;8.05;;
15183;SDS011;7693;49.266;7.104;2023-08-12T05:10:30;9.10;;;8.50;;
15183;SDS011;7693;49.266;7.104;2023-08-12T05:12:57;8.18;;;7.53;;
15183;SDS011;7693;49.266;7.104;2023-08-12T05:15:22;7.25;;;6.85;;
15183;SDS011;7693;49.266;7.104;2023-08-12T05:17:51;8.00;;;7.30;;
15183;SDS011;7693;49.266;7.104;2023-08-12T05:20:16;8.15;;;7.10;;
15183;SDS011;7693;49.266;7.104;2023-08-12T05:22:42;7.82;;;7.22;;
15183;SDS011;7693;49.266;7.104;2023-08-12T05:25:10;8.52;;;7.25;;
15183;SDS011;7693;49.266;7.104;2023-08-12T05:27:36;9.40;;;8.70;;
15183;SDS011;7693;49.266;7.104;2023-08-12T05:30:02;9.82;;;8.93;;
15183;SDS011;7693;49.266;7.104;2023-08-12T05:32:27;10.43;;;9.40;;
15183;SDS011;7693;49.266;7.104;2023-08-12T05:34:53;15.88;;;9.63;;
15183;SDS011;7693;49.266;7.104;2023-08-12T05:37:20;10.45;;;9.65;;
15183;SDS011;7693;49.266;7.104;2023-08-12T05:39:46;11.38;;;10.35;;
15183;SDS011;7693;49.266;7.104;2023-08-12T05:42:11;10.38;;;9.55;;
15183;SDS011;7693;49.266;7.104;2023-08-12T05:44:37;10.40;;;9.60;;
15183;SDS011;7693;49.266;7.104;2023-08-12T05:47:03;10.68;;;9.75;;
15183;SDS011;7693;49.266;7.104;2023-08-12T05:49:28;10.60;;;9.77;;
15183;SDS011;7693;49.266;7.104;2023-08-12T05:51:54;10.40;;;9.50;;
15183;SDS011;7693;49.266;7.104;2023-08-12T05:54:19;9.88;;;9.07;;
15183;SDS011;7693;49.266;7.104;2023-08-12T05:56:45;10.13;;;9.35;;
15183;SDS011;7693;49.266;7.104;2023-08-12T05:59:10;13.25;;;10.77;;
15183;SDS011;7693;49.266;7.104;2023-08-12T06:01:36;11.50;;;10.57;;
15183;SDS011;7693;49.266;7.104;2023-08-12T06:04:01;11.60;;;10.68;;
15183;SDS011;7693;49.266;7.104;2023-08-12T06:06:27;11.52;;;10.63;;
15183;SDS011;7693;49.266;7.104;2023-08-12T06:08:53;11.15;;;10.18;;
15183;SDS011;7693;49.266;7.104;2023-08-12T06:11:18;13.30;;;12.18;;
15183;SDS011;7693;49.266;7.104;2023-08-12T06:13:44;23.95;;;21.65;;
15183;SDS011;7693;49.266;7.104;2023-08-12T06:16:09;13.82;;;12.60;;
15183;SDS011;7693;49.266;7.104;2023-08-12T06:18:35;12.75;;;11.55;;
15183;SDS011;7693;49.266;7.104;2023-08-12T06:21:00;12.38;;;11.38;;
15183;SDS011;7693;49.266;7.104;2023-08-12T06:23:26;13.45;;;12.15;;
15183;SDS011;7693;49.266;7.104;2023-08-12T06:25:51;12.80;;;11.80;;
15183;SDS011;7693;49.266;7.104;2023-08-12T06:28:17;14.18;;;12.82;;
15183;SDS011;7693;49.266;7.104;2023-08-12T06:30:46;12.43;;;11.43;;
15183;SDS011;7693;49.266;7.104;2023-08-12T06:33:13;12.65;;;11.70;;
15183;SDS011;7693;49.266;7.104;2023-08-12T06:35:41;17.10;;;15.35;;
15183;SDS011;7693;49.266;7.104;2023-08-12T06:38:07;13.75;;;12.63;;
15183;SDS011;7693;49.266;7.104;2023-08-12T06:40:35;13.23;;;12.07;;
15183;SDS011;7693;49.266;7.104;2023-08-12T06:43:00;12.43;;;11.43;;
15183;SDS011;7693;49.266;7.104;2023-08-12T06:45:26;13.55;;;12.20;;
15183;SDS011;7693;49.266;7.104;2023-08-12T06:47:51;12.68;;;11.63;;
15183;SDS011;7693;49.266;7.104;2023-08-12T06:50:17;12.98;;;11.77;;
15183;SDS011;7693;49.266;7.104;2023-08-12T06:52:43;12.43;;;11.50;;
15183;SDS011;7693;49.266;7.104;2023-08-12T06:55:08;12.45;;;11.38;;
15183;SDS011;7693;49.266;7.104;2023-08-12T06:57:34;11.63;;;10.57;;
15183;SDS011;7693;49.266;7.104;2023-08-12T06:59:59;11.18;;;10.27;;
15183;SDS011;7693;49.266;7.104;2023-08-12T07:02:25;10.93;;;10.02;;
15183;SDS011;7693;49.266;7.104;2023-08-12T07:04:50;11.93;;;10.93;;
15183;SDS011;7693;49.266;7.104;2023-08-12T07:07:16;12.02;;;11.02;;
15183;SDS011;7693;49.266;7.104;2023-08-12T07:09:41;11.63;;;10.65;;
15183;SDS011;7693;49.266;7.104;2023-08-12T07:12:07;12.63;;;11.65;;
15183;SDS011;7693;49.266;7.104;2023-08-12T07:14:33;11.93;;;11.10;;
15183;SDS011;7693;49.266;7.104;2023-08-12T07:16:58;11.43;;;10.60;;
15183;SDS011;7693;49.266;7.104;2023-08-12T07:19:24;11.18;;;10.27;;
15183;SDS011;7693;49.266;7.104;2023-08-12T07:21:49;10.02;;;9.23;;
15183;SDS011;7693;49.266;7.104;2023-08-12T07:24:15;8.30;;;7.68;;
15183;SDS011;7693;49.266;7.104;2023-08-12T07:26:40;8.60;;;7.95;;
15183;SDS011;7693;49.266;7.104;2023-08-12T07:29:06;8.10;;;7.55;;
15183;SDS011;7693;49.266;7.104;2023-08-12T07:31:31;9.18;;;8.32;;
15183;SDS011;7693;49.266;7.104;2023-08-12T07:33:57;8.70;;;8.00;;
15183;SDS011;7693;49.266;7.104;2023-08-12T07:36:23;8.63;;;7.97;;
15183;SDS011;7693;49.266;7.104;2023-08-12T07:38:48;7.82;;;7.28;;
15183;SDS011;7693;49.266;7.104;2023-08-12T07:41:14;7.30;;;6.72;;
15183;SDS011;7693;49.266;7.104;2023-08-12T07:43:39;7.32;;;6.75;;
15183;SDS011;7693;49.266;7.104;2023-08-12T07:46:05;7.82;;;7.32;;
15183;SDS011;7693;49.266;7.104;2023-08-12T07:48:30;6.47;;;6.07;;
15183;SDS011;7693;49.266;7.104;2023-08-12T07:50:56;6.70;;;6.30;;
15183;SDS011;7693;49.266;7.104;2023-08-12T07:53:22;6.70;;;6.20;;
15183;SDS011;7693;49.266;7.104;2023-08-12T07:55:48;6.80;;;6.30;;
15183;SDS011;7693;49.266;7.104;2023-08-12T07:58:17;6.50;;;6.03;;
15183;SDS011;7693;49.266;7.104;2023-08-12T08:00:43;5.82;;;5.32;;
15183;SDS011;7693;49.266;7.104;2023-08-12T08:03:09;5.47;;;5.00;;
15183;SDS011;7693;49.266;7.104;2023-08-12T08:05:34;5.47;;;5.18;;
15183;SDS011;7693;49.266;7.104;2023-08-12T08:08:00;6.28;;;5.88;;
15183;SDS011;7693;49.266;7.104;2023-08-12T08:10:25;5.82;;;5.43;;
15183;SDS011;7693;49.266;7.104;2023-08-12T08:12:51;5.32;;;5.13;;
15183;SDS011;7693;49.266;7.104;2023-08-12T08:15:17;5.32;;;4.97;;
15183;SDS011;7693;49.266;7.104;2023-08-12T08:17:42;7.30;;;5.50;;
15183;SDS011;7693;49.266;7.104;2023-08-12T08:20:08;5.10;;;4.80;;
15183;SDS011;7693;49.266;7.104;2023-08-12T08:22:35;5.22;;;4.93;;
15183;SDS011;7693;49.266;7.104;2023-08-12T08:25:01;5.32;;;4.88;;
15183;SDS011;7693;49.266;7.104;2023-08-12T08:27:27;5.57;;;5.18;;
15183;SDS011;7693;49.266;7.104;2023-08-12T08:29:52;5.90;;;5.10;;
15183;SDS011;7693;49.266;7.104;2023-08-12T08:32:18;5.43;;;5.10;;
15183;SDS011;7693;49.266;7.104;2023-08-12T08:34:44;5.10;;;4.78;;
15183;SDS011;7693;49.266;7.104;2023-08-12T08:37:09;5.95;;;5.30;;
15183;SDS011;7693;49.266;7.104;2023-08-12T08:39:35;5.32;;;5.03;;
15183;SDS011;7693;49.266;7.104;2023-08-12T08:42:00;6.00;;;5.50;;
15183;SDS011;7693;49.266;7.104;2023-08-12T08:44:29;5.60;;;5.05;;
15183;SDS011;7693;49.266;7.104;2023-08-12T08:46:56;5.53;;;5.00;;
15183;SDS011;7693;49.266;7.104;2023-08-12T08:49:24;5.45;;;4.88;;
15183;SDS011;7693;49.266;7.104;2023-08-12T08:51:50;8.40;;;4.93;;
15183;SDS011;7693;49.266;7.104;2023-08-12T08:54:17;5.28;;;4.88;;
15183;SDS011;7693;49.266;7.104;2023-08-12T08:56:44;5.90;;;5.40;;
15183;SDS011;7693;49.266;7.104;2023-08-12T08:59:10;5.90;;;5.40;;
15183;SDS011;7693;49.266;7.104;2023-08-12T09:01:36;7.15;;;6.47;;
15183;SDS011;7693;49.266;7.104;2023-08-12T09:04:03;6.35;;;5.80;;
15183;SDS011;7693;49.266;7.104;2023-08-12T09:06:30;9.02;;;6.47;;
15183;SDS011;7693;49.266;7.104;2023-08-12T12:59:54;3.63;;;2.20;;
15183;SDS011;7693;49.266;7.104;2023-08-12T13:02:20;2.40;;;2.10;;
15183;SDS011;7693;49.266;7.104;2023-08-12T13:04:45;4.10;;;2.30;;
15183;SDS011;7693;49.266;7.104;2023-08-12T13:07:11;1.98;;;1.88;;
15183;SDS011;7693;49.266;7.104;2023-08-12T13:09:36;2.15;;;2.00;;
15183;SDS011;7693;49.266;7.104;2023-08-12T13:12:02;2.25;;;2.05;;
15183;SDS011;7693;49.266;7.104;2023-08-12T13:14:28;3.65;;;2.20;;
15183;SDS011;7693;49.266;7.104;2023-08-12T13:16:55;1.75;;;1.75;;
15183;SDS011;7693;49.266;7.104;2023-08-12T13:19:20;2.25;;;2.05;;
15183;SDS011;7693;49.266;7.104;2023-08-12T13:21:46;2.17;;;2.00;;
15183;SDS011;7693;49.266;7.104;2023-08-12T13:24:11;2.17;;;1.80;;
15183;SDS011;7693;49.266;7.104;2023-08-12T13:26:37;2.15;;;1.83;;
15183;SDS011;7693;49.266;7.104;2023-08-12T13:29:03;2.03;;;1.90;;
15183;SDS011;7693;49.266;7.104;2023-08-12T13:31:28;1.92;;;1.83;;
15183;SDS011;7693;49.266;7.104;2023-08-12T13:33:54;1.75;;;1.65;;
15183;SDS011;7693;49.266;7.104;2023-08-12T13:36:23;2.03;;;1.90;;
15183;SDS011;7693;49.266;7.104;2023-08-12T13:38:49;3.40;;;2.08;;
15183;SDS011;7693;49.266;7.104;2023-08-12T13:41:15;2.10;;;2.00;;
15183;SDS011;7693;49.266;7.104;2023-08-12T13:43:41;2.88;;;2.08;;
15183;SDS011;7693;49.266;7.104;2023-08-12T13:46:06;3.90;;;2.53;;
15183;SDS011;7693;49.266;7.104;2023-08-12T13:48:32;2.10;;;1.90;;
15183;SDS011;7693;49.266;7.104;2023-08-12T13:50:57;2.40;;;2.20;;
15183;SDS011;7693;49.266;7.104;2023-08-12T13:53:23;4.45;;;2.20;;
15183;SDS011;7693;49.266;7.104;2023-08-12T13:55:49;2.17;;;2.08;;
15183;SDS011;7693;49.266;7.104;2023-08-12T13:58:14;3.35;;;2.22;;
15183;SDS011;7693;49.266;7.104;2023-08-12T14:00:40;2.40;;;2.30;;
15183;SDS011;7693;49.266;7.104;2023-08-12T14:03:06;4.57;;;2.28;;
15183;SDS011;7693;49.266;7.104;2023-08-12T14:05:31;3.38;;;1.90;;
15183;SDS011;7693;49.266;7.104;2023-08-12T14:07:57;2.20;;;2.05;;
15183;SDS011;7693;49.266;7.104;2023-08-12T14:10:23;2.40;;;2.20;;
15183;SDS011;7693;49.266;7.104;2023-08-12T14:12:49;5.90;;;2.30;;
15183;SDS011;7693;49.266;7.104;2023-08-12T14:15:14;3.85;;;2.15;;
15183;SDS011;7693;49.266;7.104;2023-08-12T14:17:40;2.47;;;1.98;;
15183;SDS011;7693;49.266;7.104;2023-08-12T14:20:06;3.03;;;2.58;;
15183;SDS011;7693;49.266;7.104;2023-08-12T14:22:33;2.63;;;2.13;;
15183;SDS011;7693;49.266;7.104;2023-08-12T14:25:00;2.40;;;2.20;;
15183;SDS011;7693;49.266;7.104;2023-08-12T14:27:26;5.00;;;2.22;;
15183;SDS011;7693;49.266;7.104;2023-08-12T14:29:51;2.63;;;2.42;;
15183;SDS011;7693;49.266;7.104;2023-08-12T14:32:17;2.70;;;2.50;;
15183;SDS011;7693;49.266;7.104;2023-08-12T14:34:44;2.35;;;2.20;;
15183;SDS011;7693;49.266;7.104;2023-08-12T14:37:11;2.88;;;2.67;;
15183;SDS011;7693;49.266;7.104;2023-08-12T14:39:37;2.30;;;2.10;;
15183;SDS011;7693;49.266;7.104;2023-08-12T14:42:07;4.10;;;2.00;;
15183;SDS011;7693;49.266;7.104;2023-08-12T14:44:33;2.13;;;2.03;;
15183;SDS011;7693;49.266;7.104;2023-08-12T14:47:00;3.28;;;1.95;;
15183;SDS011;7693;49.266;7.104;2023-08-12T14:49:26;2.55;;;2.08;;
15183;SDS011;7693;49.266;7.104;2023-08-12T14:51:51;4.22;;;1.75;;
15183;SDS011;7693;49.266;7.104;2023-08-12T14:54:19;2.15;;;2.00;;
15183;SDS011;7693;49.266;7.104;2023-08-12T14:56:44;2.10;;;1.90;;
15183;SDS011;7693;49.266;7.104;2023-08-12T14:59:10;2.28;;;1.75;;
15183;SDS011;7693;49.266;7.104;2023-08-12T15:01:36;2.35;;;2.15;;
15183;SDS011;7693;49.266;7.104;2023-08-12T15:04:01;1.75;;;1.70;;
15183;SDS011;7693;49.266;7.104;2023-08-12T15:06:27;1.60;;;1.50;;
15183;SDS011;7693;49.266;7.104;2023-08-12T15:08:53;1.98;;;1.60;;
15183;SDS011;7693;49.266;7.104;2023-08-12T15:11:19;2.00;;;1.90;;
15183;SDS011;7693;49.266;7.104;2023-08-12T15:13:45;1.73;;;1.63;;
15183;SDS011;7693;49.266;7.104;2023-08-12T15:16:10;1.77;;;1.67;;
15183;SDS011;7693;49.266;7.104;2023-08-12T15:18:36;2.42;;;1.83;;
15183;SDS011;7693;49.266;7.104;2023-08-12T15:21:02;1.42;;;1.42;;
15183;SDS011;7693;49.266;7.104;2023-08-12T15:23:27;1.48;;;1.38;;
15183;SDS011;7693;49.266;7.104;2023-08-12T15:25:53;1.35;;;1.35;;
15183;SDS011;7693;49.266;7.104;2023-08-12T15:28:18;1.95;;;1.70;;
15183;SDS011;7693;49.266;7.104;2023-08-12T15:30:47;4.63;;;1.52;;
15183;SDS011;7693;49.266;7.104;2023-08-12T15:33:14;1.40;;;1.40;;
15183;SDS011;7693;49.266;7.104;2023-08-12T15:35:40;1.30;;;1.30;;
15183;SDS011;7693;49.266;7.104;2023-08-12T15:38:05;1.23;;;1.20;;
15183;SDS011;7693;49.266;7.104;2023-08-12T15:40:32;2.15;;;1.50;;
15183;SDS011;7693;49.266;7.104;2023-08-12T15:42:57;1.58;;;1.48;;
15183;SDS011;7693;49.266;7.104;2023-08-12T15:45:23;1.40;;;1.40;;
15183;SDS011;7693;49.266;7.104;2023-08-12T15:47:48;1.63;;;1.52;;
15183;SDS011;7693;49.266;7.104;2023-08-12T15:50:14;1.48;;;1.48;;
15183;SDS011;7693;49.266;7.104;2023-08-12T15:52:43;1.80;;;1.70;;
15183;SDS011;7693;49.266;7.104;2023-08-12T15:55:08;1.50;;;1.40;;
15183;SDS011;7693;49.266;7.104;2023-08-12T15:57:34;1.55;;;1.50;;
15183;SDS011;7693;49.266;7.104;2023-08-12T16:00:00;1.60;;;1.50;;
15183;SDS011;7693;49.266;7.104;2023-08-12T16:02:25;1.70;;;1.60;;
15183;SDS011;7693;49.266;7.104;2023-08-12T16:04:51;2.08;;;1.60;;
15183;SDS011;7693;49.266;7.104;2023-08-12T16:07:16;1.63;;;1.55;;
15183;SDS011;7693;49.266;7.104;2023-08-12T16:09:42;1.80;;;1.60;;
15183;SDS011;7693;49.266;7.104;2023-08-12T16:12:07;1.80;;;1.70;;
15183;SDS011;7693;49.266;7.104;2023-08-12T16:14:33;2.05;;;1.30;;
15183;SDS011;7693;49.266;7.104;2023-08-12T16:16:59;2.05;;;1.45;;
15183;SDS011;7693;49.266;7.104;2023-08-12T16:19:25;1.60;;;1.60;;
15183;SDS011;7693;49.266;7.104;2023-08-12T16:21:50;2.35;;;1.35;;
15183;SDS011;7693;49.266;7.104;2023-08-12T16:24:16;1.60;;;1.50;;
15183;SDS011;7693;49.266;7.104;2023-08-12T16:26:41;1.95;;;1.40;;
15183;SDS011;7693;49.266;7.104;2023-08-12T16:29:07;2.05;;;1.25;;
15183;SDS011;7693;49.266;7.104;2023-08-12T16:31:33;2.70;;;1.55;;
15183;SDS011;7693;49.266;7.104;2023-08-12T16:33:58;1.27;;;1.27;;
15183;SDS011;7693;49.266;7.104;2023-08-12T16:36:24;2.78;;;1.50;;
15183;SDS011;7693;49.266;7.104;2023-08-12T16:38:49;1.50;;;1.42;;
15183;SDS011;7693;49.266;7.104;2023-08-12T16:41:15;4.53;;;1.98;;
15183;SDS011;7693;49.266;7.104;2023-08-12T16:43:42;2.65;;;2.45;;
15183;SDS011;7693;49.266;7.104;2023-08-12T16:46:08;6.63;;;5.30;;
15183;SDS011;7693;49.266;7.104;2023-08-12T16:48:33;3.92;;;3.60;;
15183;SDS011;7693;49.266;7.104;2023-08-12T16:50:59;3.50;;;2.25;;
15183;SDS011;7693;49.266;7.104;2023-08-12T16:53:24;1.60;;;1.50;;
15183;SDS011;7693;49.266;7.104;2023-08-12T16:55:50;1.67;;;1.58;;
15183;SDS011;7693;49.266;7.104;2023-08-12T16:58:16;1.40;;;1.30;;
15183;SDS011;7693;49.266;7.104;2023-08-12T17:00:42;1.60;;;1.60;;
15183;SDS011;7693;49.266;7.104;2023-08-12T17:03:07;1.75;;;1.75;;
15183;SDS011;7693;49.266;7.104;2023-08-12T17:05:33;2.67;;;2.47;;
15183;SDS011;7693;49.266;7.104;2023-08-12T17:07:58;4.22;;;3.47;;
15183;SDS011;7693;49.266;7.104;2023-08-12T17:10:24;1.83;;;1.50;;
15183;SDS011;7693;49.266;7.104;2023-08-12T17:12:51;1.63;;;1.52;;
15183;SDS011;7693;49.266;7.104;2023-08-12T17:15:16;1.25;;;1.25;;
15183;SDS011;7693;49.266;7.104;2023-08-12T17:17:42;1.10;;;1.10;;
15183;SDS011;7693;49.266;7.104;2023-08-12T17:20:07;1.40;;;1.30;;
15183;SDS011;7693;49.266;7.104;2023-08-12T17:22:33;2.33;;;1.50;;
15183;SDS011;7693;49.266;7.104;2023-08-12T17:25:00;1.40;;;1.40;;
15183;SDS011;7693;49.266;7.104;2023-08-12T17:27:27;1.20;;;1.20;;
15183;SDS011;7693;49.266;7.104;2023-08-12T17:29:55;2.00;;;1.45;;
15183;SDS011;7693;49.266;7.104;2023-08-12T17:32:24;2.42;;;1.38;;
15183;SDS011;7693;49.266;7.104;2023-08-12T17:34:50;2.25;;;1.48;;
15183;SDS011;7693;49.266;7.104;2023-08-12T17:37:16;1.83;;;1.52;;
15183;SDS011;7693;49.266;7.104;2023-08-12T17:39:46;1.48;;;1.48;;
15183;SDS011;7693;49.266;7.104;2023-08-12T17:42:11;1.38;;;1.30;;
15183;SDS011;7693;49.266;7.104;2023-08-12T17:44:37;1.98;;;1.70;;
15183;SDS011;7693;49.266;7.104;2023-08-12T17:47:02;1.17;;;1.17;;
15183;SDS011;7693;49.266;7.104;2023-08-12T17:49:28;1.63;;;1.35;;
15183;SDS011;7693;49.266;7.104;2023-08-12T17:51:54;1.40;;;1.35;;
15183;SDS011;7693;49.266;7.104;2023-08-12T17:54:19;1.77;;;1.67;;
15183;SDS011;7693;49.266;7.104;2023-08-12T17:56:45;2.10;;;1.90;;
15183;SDS011;7693;49.266;7.104;2023-08-12T17:59:11;1.60;;;1.50;;
15183;SDS011;7693;49.266;7.104;2023-08-12T18:01:36;1.70;;;1.60;;
15183;SDS011;7693;49.266;7.104;2023-08-12T18:04:02;1.20;;;1.20;;
15183;SDS011;7693;49.266;7.104;2023-08-12T18:06:27;2.55;;;1.45;;
15183;SDS011;7693;49.266;7.104;2023-08-12T18:08:53;1.10;;;1.10;;
15183;SDS011;7693;49.266;7.104;2023-08-12T18:11:18;1.25;;;1.25;;
15183;SDS011;7693;49.266;7.104;2023-08-12T18:13:45;1.10;;;1.10;;
15183;SDS011;7693;49.266;7.104;2023-08-12T18:16:11;1.25;;;1.25;;
15183;SDS011;7693;49.266;7.104;2023-08-12T18:18:36;2.40;;;1.35;;
15183;SDS011;7693;49.266;7.104;2023-08-12T18:21:02;1.40;;;1.30;;
15183;SDS011;7693;49.266;7.104;2023-08-12T18:23:28;1.40;;;1.40;;
15183;SDS011;7693;49.266;7.104;2023-08-12T18:25:54;1.77;;;1.30;;
15183;SDS011;7693;49.266;7.104;2023-08-12T18:28:19;2.88;;;1.38;;
15183;SDS011;7693;49.266;7.104;2023-08-12T18:30:48;1.63;;;1.50;;
15183;SDS011;7693;49.266;7.104;2023-08-12T18:33:14;1.30;;;1.30;;
15183;SDS011;7693;49.266;7.104;2023-08-12T18:35:39;1.92;;;1.52;;
15183;SDS011;7693;49.266;7.104;2023-08-12T18:38:05;1.50;;;1.45;;
15183;SDS011;7693;49.266;7.104;2023-08-12T18:40:31;2.72;;;1.40;;
15183;SDS011;7693;49.266;7.104;2023-08-12T18:42:57;1.50;;;1.40;;
15183;SDS011;7693;49.266;7.104;2023-08-12T18:45:24;1.23;;;1.20;;
15183;SDS011;7693;49.266;7.104;2023-08-12T18:47:50;3.35;;;1.30;;
15183;SDS011;7693;49.266;7.104;2023-08-12T18:50:15;5.35;;;1.65;;
15183;SDS011;7693;49.266;7.104;2023-08-12T18:52:41;1.70;;;1.55;;
15183;SDS011;7693;49.266;7.104;2023-08-12T18:55:06;1.38;;;1.38;;
15183;SDS011;7693;49.266;7.104;2023-08-12T18:57:35;2.47;;;1.63;;
15183;SDS011;7693;49.266;7.104;2023-08-12T19:00:01;1.33;;;1.23;;
15183;SDS011;7693;49.266;7.104;2023-08-12T19:02:26;2.25;;;1.48;;
15183;SDS011;7693;49.266;7.104;2023-08-12T19:04:52;3.00;;;1.70;;
15183;SDS011;7693;49.266;7.104;2023-08-12T19:07:17;2.78;;;1.30;;
15183;SDS011;7693;49.266;7.104;2023-08-12T19:09:43;1.40;;;1.30;;
15183;SDS011;7693;49.266;7.104;2023-08-12T19:12:09;1.55;;;1.50;;
15183;SDS011;7693;49.266;7.104;2023-08-12T19:14:34;2.35;;;1.42;;
15183;SDS011;7693;49.266;7.104;2023-08-12T19:17:00;1.48;;;1.38;;
15183;SDS011;7693;49.266;7.104;2023-08-12T19:19:25;1.20;;;1.20;;
15183;SDS011;7693;49.266;7.104;2023-08-12T19:21:51;2.97;;;1.60;;
15183;SDS011;7693;49.266;7.104;2023-08-12T19:24:17;1.67;;;1.55;;
15183;SDS011;7693;49.266;7.104;2023-08-12T19:26:42;1.70;;;1.60;;
15183;SDS011;7693;49.266;7.104;2023-08-12T19:29:08;1.60;;;1.50;;
15183;SDS011;7693;49.266;7.104;2023-08-12T19:31:33;1.75;;;1.50;;
15183;SDS011;7693;49.266;7.104;2023-08-12T19:33:59;4.93;;;1.42;;
15183;SDS011;7693;49.266;7.104;2023-08-12T19:36:24;2.83;;;1.40;;
15183;SDS011;7693;49.266;7.104;2023-08-12T19:38:50;1.77;;;1.40;;
15183;SDS011;7693;49.266;7.104;2023-08-12T19:41:16;1.55;;;1.40;;
15183;SDS011;7693;49.266;7.104;2023-08-12T19:43:41;1.25;;;1.25;;
15183;SDS011;7693;49.266;7.104;2023-08-12T19:46:07;1.50;;;1.40;;
15183;SDS011;7693;49.266;7.104;2023-08-12T19:48:32;1.65;;;1.55;;
15183;SDS011;7693;49.266;7.104;2023-08-12T19:50:58;1.77;;;1.67;;
15183;SDS011;7693;49.266;7.104;2023-08-12T19:53:24;1.90;;;1.42;;
15183;SDS011;7693;49.266;7.104;2023-08-12T19:55:49;1.50;;;1.50;;
15183;SDS011;7693;49.266;7.104;2023-08-12T19:58:16;1.25;;;1.23;;
15183;SDS011;7693;49.266;7.104;2023-08-12T20:00:42;3.85;;;1.70;;
15183;SDS011;7693;49.266;7.104;2023-08-12T20:03:07;1.70;;;1.60;;
15183;SDS011;7693;49.266;7.104;2023-08-12T20:05:33;1.58;;;1.50;;
15183;SDS011;7693;49.266;7.104;2023-08-12T20:07:59;5.57;;;1.77;;
15183;SDS011;7693;49.266;7.104;2023-08-12T20:10:24;1.75;;;1.60;;
15183;SDS011;7693;49.266;7.104;2023-08-12T20:12:50;1.33;;;1.25;;
15183;SDS011;7693;49.266;7.104;2023-08-12T20:15:18;2.53;;;1.70;;
15183;SDS011;7693;49.266;7.104;2023-08-12T20:17:44;3.45;;;1.70;;
15183;SDS011;7693;49.266;7.104;2023-08-12T20:20:11;1.80;;;1.70;;
15183;SDS011;7693;49.266;7.104;2023-08-12T20:22:40;1.40;;;1.40;;
15183;SDS011;7693;49.266;7.104;2023-08-12T20:25:13;1.35;;;1.33;;
15183;SDS011;7693;49.266;7.104;2023-08-12T20:27:39;1.40;;;1.40;;
15183;SDS011;7693;49.266;7.104;2023-08-12T20:30:05;2.05;;;1.35;;
15183;SDS011;7693;49.266;7.104;2023-08-12T20:32:34;1.75;;;1.48;;
15183;SDS011;7693;49.266;7.104;2023-08-12T20:35:01;1.77;;;1.45;;
15183;SDS011;7693;49.266;7.104;2023-08-12T20:37:27;1.38;;;1.38;;
15183;SDS011;7693;49.266;7.104;2023-08-12T20:39:54;1.40;;;1.40;;
15183;SDS011;7693;49.266;7.104;2023-08-12T20:42:20;2.17;;;1.67;;
15183;SDS011;7693;49.266;7.104;2023-08-12T20:44:47;1.45;;;1.33;;
15183;SDS011;7693;49.266;7.104;2023-08-12T20:47:12;2.55;;;1.58;;
15183;SDS011;7693;49.266;7.104;2023-08-12T20:49:38;1.48;;;1.38;;
15183;SDS011;7693;49.266;7.104;2023-08-12T20:52:04;1.75;;;1.50;;
15183;SDS011;7693;49.266;7.104;2023-08-12T20:54:30;5.10;;;1.42;;
15183;SDS011;7693;49.266;7.104;2023-08-12T20:56:56;1.75;;;1.60;;
15183;SDS011;7693;49.266;7.104;2023-08-12T20:59:21;1.60;;;1.50;;
15183;SDS011;7693;49.266;7.104;2023-08-12T21:01:47;1.60;;;1.50;;
15183;SDS011;7693;49.266;7.104;2023-08-12T21:04:13;4.18;;;1.30;;
15183;SDS011;7693;49.266;7.104;2023-08-12T21:06:38;2.47;;;1.35;;
15183;SDS011;7693;49.266;7.104;2023-08-12T21:09:04;2.15;;;1.67;;
15183;SDS011;7693;49.266;7.104;2023-08-12T21:11:30;1.40;;;1.40;;
15183;SDS011;7693;49.266;7.104;2023-08-12T21:13:56;1.10;;;1.10;;
15183;SDS011;7693;49.266;7.104;2023-08-12T21:16:22;2.67;;;1.20;;
15183;SDS011;7693;49.266;7.104;2023-08-12T21:18:48;1.00;;;1.00;;
15183;SDS011;7693;49.266;7.104;2023-08-12T21:21:13;1.95;;;1.45;;
15183;SDS011;7693;49.266;7.104;2023-08-12T21:23:39;2.05;;;1.40;;
15183;SDS011;7693;49.266;7.104;2023-08-12T21:26:05;1.38;;;1.20;;
15183;SDS011;7693;49.266;7.104;2023-08-12T21:28:30;1.45;;;1.35;;
15183;SDS011;7693;49.266;7.104;2023-08-12T21:30:56;1.80;;;1.70;;
15183;SDS011;7693;49.266;7.104;2023-08-12T21:33:22;1.20;;;1.20;;
15183;SDS011;7693;49.266;7.104;2023-08-12T21:35:47;1.27;;;1.27;;
15183;SDS011;7693;49.266;7.104;2023-08-12T21:38:14;1.38;;;1.38;;
15183;SDS011;7693;49.266;7.104;2023-08-12T21:40:39;2.25;;;1.30;;
15183;SDS011;7693;49.266;7.104;2023-08-12T21:43:05;1.38;;;1.33;;
15183;SDS011;7693;49.266;7.104;2023-08-12T21:45:30;1.55;;;1.42;;
15183;SDS011;7693;49.266;7.104;2023-08-12T21:47:56;1.30;;;1.20;;
15183;SDS011;7693;49.266;7.104;2023-08-12T21:50:21;1.73;;;1.48;;
15183;SDS011;7693;49.266;7.104;2023-08-12T21:52:47;1.30;;;1.20;;
15183;SDS011;7693;49.266;7.104;2023-08-12T21:55:12;2.63;;;1.10;;
15183;SDS011;7693;49.266;7.104;2023-08-12T21:57:38;1.40;;;1.35;;
15183;SDS011;7693;49.266;7.104;2023-08-12T22:00:04;2.70;;;1.15;;
15183;SDS011;7693;49.266;7.104;2023-08-12T22:02:32;2.03;;;1.40;;
15183;SDS011;7693;49.266;7.104;2023-08-12T22:04:58;3.08;;;1.20;;
15183;SDS011;7693;49.266;7.104;2023-08-12T22:07:23;1.95;;;1.35;;
15183;SDS011;7693;49.266;7.104;2023-08-12T22:09:49;2.40;;;1.35;;
